createdAt,value
2023-03-22T00:00:16.320Z,0.00
2023-03-22T00:01:16.436Z,0.00
2023-03-22T00:02:16.504Z,0.00
2023-03-22T00:03:16.294Z,0.00
2023-03-22T00:04:16.298Z,0.00
2023-03-22T00:05:17.742Z,0.00
2023-03-22T00:06:16.287Z,0.00
2023-03-22T00:07:16.287Z,0.00
2023-03-22T00:08:16.702Z,0.00
2023-03-22T00:09:16.288Z,0.00
2023-03-22T00:10:16.278Z,0.00
2023-03-22T00:11:16.249Z,0.00
2023-03-22T00:12:16.246Z,0.00
2023-03-22T00:13:16.215Z,0.00
2023-03-22T00:14:17.065Z,0.00
2023-03-22T00:15:16.266Z,0.00
2023-03-22T00:16:16.247Z,0.00
2023-03-22T00:17:17.118Z,0.00
2023-03-22T00:18:16.184Z,0.00
2023-03-22T00:19:16.175Z,0.00
2023-03-22T00:20:16.175Z,0.00
2023-03-22T00:21:16.277Z,0.00
2023-03-22T00:22:16.219Z,0.00
2023-03-22T00:23:16.141Z,0.00
2023-03-22T00:24:16.146Z,0.00
2023-03-22T00:25:17.114Z,0.00
2023-03-22T00:26:16.147Z,0.00
2023-03-22T00:27:16.172Z,0.00
2023-03-22T00:28:16.116Z,0.00
2023-03-22T00:29:16.992Z,0.00
2023-03-22T00:30:17.154Z,0.00
2023-03-22T00:31:16.198Z,0.00
2023-03-22T00:32:16.310Z,0.00
2023-03-22T00:33:16.088Z,0.00
2023-03-22T00:34:16.083Z,0.00
2023-03-22T00:35:16.072Z,0.00
2023-03-22T00:36:16.072Z,0.00
2023-03-22T00:37:16.074Z,0.00
2023-03-22T00:38:16.056Z,0.00
2023-03-22T00:39:16.063Z,0.00
2023-03-22T00:40:18.194Z,0.00
2023-03-22T00:41:16.994Z,0.00
2023-03-22T00:42:16.080Z,0.00
2023-03-22T00:43:16.025Z,0.00
2023-03-22T00:44:16.013Z,0.00
2023-03-22T00:45:16.001Z,0.00
2023-03-22T00:46:16.120Z,0.00
2023-03-22T00:47:15.994Z,0.00
2023-03-22T00:48:16.023Z,0.00
2023-03-22T00:49:15.973Z,0.00
2023-03-22T00:50:15.979Z,0.00
2023-03-22T00:51:16.109Z,0.00
2023-03-22T00:52:15.998Z,0.00
2023-03-22T00:53:15.952Z,0.00
2023-03-22T00:54:15.962Z,0.00
2023-03-22T00:55:16.016Z,0.00
2023-03-22T00:56:16.177Z,0.00
2023-03-22T00:57:15.943Z,0.00
2023-03-22T00:58:15.917Z,0.00
2023-03-22T00:59:15.892Z,0.00
2023-03-22T01:00:15.898Z,0.00
2023-03-22T01:01:16.096Z,0.00
2023-03-22T01:02:15.920Z,0.00
2023-03-22T01:03:15.906Z,0.00
2023-03-22T01:04:15.878Z,0.00
2023-03-22T01:05:15.859Z,0.00
2023-03-22T01:06:15.849Z,0.00
2023-03-22T01:07:15.837Z,0.00
2023-03-22T01:08:15.846Z,0.00
2023-03-22T01:09:15.838Z,0.00
2023-03-22T01:10:15.898Z,0.00
2023-03-22T01:11:15.846Z,0.00
2023-03-22T01:12:15.806Z,0.00
2023-03-22T01:13:17.849Z,0.00
2023-03-22T01:14:15.784Z,0.00
2023-03-22T01:15:15.784Z,0.00
2023-03-22T01:16:15.815Z,0.00
2023-03-22T01:17:15.764Z,0.00
2023-03-22T01:18:15.774Z,0.00
2023-03-22T01:19:15.776Z,0.00
2023-03-22T01:20:15.754Z,0.00
2023-03-22T01:21:15.753Z,0.00
2023-03-22T01:22:15.735Z,0.00
2023-03-22T01:23:15.740Z,0.00
2023-03-22T01:24:15.726Z,0.00
2023-03-22T01:25:15.720Z,0.00
2023-03-22T01:26:15.716Z,0.00
2023-03-22T01:27:15.690Z,0.00
2023-03-22T01:28:15.838Z,0.00
2023-03-22T01:29:15.691Z,0.00
2023-03-22T01:30:15.681Z,0.00
2023-03-22T01:31:16.061Z,0.00
2023-03-22T01:32:16.386Z,0.00
2023-03-22T01:33:15.758Z,0.00
2023-03-22T01:34:15.738Z,0.00
2023-03-22T01:35:16.180Z,0.00
2023-03-22T01:36:15.649Z,0.00
2023-03-22T01:37:16.398Z,0.00
2023-03-22T01:38:15.639Z,0.00
2023-03-22T01:39:16.540Z,0.00
2023-03-22T01:40:15.807Z,0.00
2023-03-22T01:41:16.172Z,0.00
2023-03-22T01:42:16.561Z,0.00
2023-03-22T01:43:15.646Z,0.00
2023-03-22T01:44:15.658Z,0.00
2023-03-22T01:45:15.649Z,0.00
2023-03-22T01:46:15.660Z,0.00
2023-03-22T01:47:15.581Z,0.00
2023-03-22T01:48:15.708Z,0.00
2023-03-22T01:49:15.921Z,0.00
2023-03-22T01:50:15.683Z,0.00
2023-03-22T01:51:15.681Z,0.00
2023-03-22T01:52:15.715Z,0.00
2023-03-22T01:53:15.704Z,0.00
2023-03-22T01:54:15.817Z,0.00
2023-03-22T01:55:15.731Z,0.00
2023-03-22T01:56:15.509Z,0.00
2023-03-22T01:57:15.931Z,0.00
2023-03-22T01:58:15.730Z,0.00
2023-03-22T01:59:15.748Z,0.00
2023-03-22T02:00:16.163Z,0.00
2023-03-22T02:01:15.615Z,0.00
2023-03-22T02:02:15.554Z,0.00
2023-03-22T02:03:16.201Z,0.00
2023-03-22T02:04:15.589Z,0.00
2023-03-22T02:05:15.579Z,0.00
2023-03-22T02:06:15.584Z,0.00
2023-03-22T02:07:15.539Z,0.00
2023-03-22T02:08:15.593Z,0.00
2023-03-22T02:09:15.409Z,0.00
2023-03-22T02:10:15.722Z,0.00
2023-03-22T02:11:15.516Z,0.00
2023-03-22T02:12:15.626Z,0.00
2023-03-22T02:13:15.637Z,0.00
2023-03-22T02:14:16.838Z,0.00
2023-03-22T02:15:15.439Z,0.00
2023-03-22T02:16:15.590Z,0.00
2023-03-22T02:17:15.465Z,0.00
2023-03-22T02:18:15.667Z,0.00
2023-03-22T02:19:15.463Z,0.00
2023-03-22T02:20:15.469Z,0.00
2023-03-22T02:21:15.456Z,0.00
2023-03-22T02:22:15.316Z,0.00
2023-03-22T02:23:15.505Z,0.00
2023-03-22T02:24:15.501Z,0.00
2023-03-22T02:25:15.520Z,0.00
2023-03-22T02:26:15.355Z,0.00
2023-03-22T02:27:15.524Z,0.00
2023-03-22T02:28:15.752Z,0.00
2023-03-22T02:29:15.342Z,0.00
2023-03-22T02:30:15.344Z,0.00
2023-03-22T02:31:15.488Z,0.00
2023-03-22T02:32:15.251Z,0.00
2023-03-22T02:33:15.373Z,0.00
2023-03-22T02:34:15.374Z,0.00
2023-03-22T02:35:15.243Z,0.00
2023-03-22T02:36:15.214Z,0.00
2023-03-22T02:37:15.212Z,0.00
2023-03-22T02:38:15.402Z,0.00
2023-03-22T02:39:15.264Z,0.00
2023-03-22T02:40:15.417Z,0.00
2023-03-22T02:41:15.262Z,0.00
2023-03-22T02:42:15.421Z,0.00
2023-03-22T02:43:15.426Z,0.00
2023-03-22T02:44:15.240Z,0.00
2023-03-22T02:45:15.651Z,0.00
2023-03-22T02:46:15.314Z,0.00
2023-03-22T02:47:15.261Z,0.00
2023-03-22T02:48:15.301Z,0.00
2023-03-22T02:49:15.270Z,0.00
2023-03-22T02:50:15.130Z,0.00
2023-03-22T02:51:15.140Z,0.00
2023-03-22T02:52:15.118Z,0.00
2023-03-22T02:53:15.278Z,0.00
2023-03-22T02:54:15.529Z,0.00
2023-03-22T02:55:15.520Z,0.00
2023-03-22T02:56:15.228Z,0.00
2023-03-22T02:57:15.211Z,0.00
2023-03-22T02:58:15.109Z,0.00
2023-03-22T02:59:15.118Z,0.00
2023-03-22T03:00:15.130Z,0.00
2023-03-22T03:01:15.141Z,0.00
2023-03-22T03:02:15.367Z,0.00
2023-03-22T03:03:15.136Z,0.00
2023-03-22T03:04:15.365Z,0.00
2023-03-22T03:05:15.358Z,0.00
2023-03-22T03:06:15.167Z,0.00
2023-03-22T03:07:15.576Z,0.00
2023-03-22T03:08:15.184Z,0.00
2023-03-22T03:09:15.517Z,0.00
2023-03-22T03:10:15.597Z,0.00
2023-03-22T03:11:15.016Z,0.00
2023-03-22T03:12:15.204Z,0.00
2023-03-22T03:13:15.209Z,0.00
2023-03-22T03:14:15.005Z,0.00
2023-03-22T03:15:15.838Z,0.00
2023-03-22T03:16:15.861Z,0.00
2023-03-22T03:17:15.236Z,0.00
2023-03-22T03:18:15.452Z,0.00
2023-03-22T03:19:15.042Z,0.00
2023-03-22T03:20:15.261Z,0.00
2023-03-22T03:21:15.113Z,0.00
2023-03-22T03:22:14.902Z,0.00
2023-03-22T03:23:14.902Z,0.00
2023-03-22T03:24:14.894Z,0.00
2023-03-22T03:25:14.878Z,0.00
2023-03-22T03:26:14.883Z,0.00
2023-03-22T03:27:14.892Z,0.00
2023-03-22T03:28:14.934Z,0.00
2023-03-22T03:29:14.923Z,0.00
2023-03-22T03:30:15.130Z,0.00
2023-03-22T03:31:14.869Z,0.00
2023-03-22T03:32:14.932Z,0.00
2023-03-22T03:33:14.835Z,0.00
2023-03-22T03:34:14.953Z,0.00
2023-03-22T03:35:14.956Z,0.00
2023-03-22T03:36:14.890Z,0.00
2023-03-22T03:37:14.820Z,0.00
2023-03-22T03:38:14.971Z,0.00
2023-03-22T03:39:14.789Z,0.00
2023-03-22T03:40:14.792Z,0.00
2023-03-22T03:41:14.821Z,0.00
2023-03-22T03:42:14.801Z,0.00
2023-03-22T03:43:14.816Z,0.00
2023-03-22T03:44:14.761Z,0.00
2023-03-22T03:45:14.834Z,0.00
2023-03-22T03:46:14.848Z,0.00
2023-03-22T03:47:15.037Z,0.00
2023-03-22T03:48:15.113Z,0.00
2023-03-22T03:49:15.049Z,0.00
2023-03-22T03:50:15.070Z,0.00
2023-03-22T03:51:15.171Z,0.00
2023-03-22T03:52:15.064Z,0.00
2023-03-22T03:53:15.075Z,0.00
2023-03-22T03:54:15.071Z,0.00
2023-03-22T03:55:15.103Z,0.00
2023-03-22T03:56:15.100Z,0.00
2023-03-22T03:57:15.090Z,0.00
2023-03-22T03:58:14.893Z,0.00
2023-03-22T03:59:15.111Z,0.00
2023-03-22T04:00:15.310Z,0.00
2023-03-22T04:01:14.708Z,0.00
2023-03-22T04:02:14.729Z,0.00
2023-03-22T04:03:14.922Z,0.00
2023-03-22T04:04:15.435Z,0.00
2023-03-22T04:05:15.349Z,0.00
2023-03-22T04:06:15.360Z,0.00
2023-03-22T04:07:14.744Z,0.00
2023-03-22T04:08:15.387Z,0.00
2023-03-22T04:09:15.400Z,0.00
2023-03-22T04:10:14.572Z,0.00
2023-03-22T04:11:14.568Z,0.00
2023-03-22T04:12:14.581Z,0.00
2023-03-22T04:13:14.605Z,0.00
2023-03-22T04:14:14.637Z,0.00
2023-03-22T04:15:14.666Z,0.00
2023-03-22T04:16:14.853Z,0.00
2023-03-22T04:17:14.822Z,0.00
2023-03-22T04:18:14.517Z,0.00
2023-03-22T04:19:14.866Z,0.00
2023-03-22T04:20:14.856Z,0.00
2023-03-22T04:21:15.115Z,0.00
2023-03-22T04:22:15.050Z,0.00
2023-03-22T04:23:15.065Z,0.00
2023-03-22T04:24:15.095Z,0.00
2023-03-22T04:25:14.870Z,0.00
2023-03-22T04:26:14.599Z,0.00
2023-03-22T04:27:14.500Z,0.00
2023-03-22T04:28:14.715Z,0.00
2023-03-22T04:29:14.926Z,0.00
2023-03-22T04:30:15.133Z,0.00
2023-03-22T04:31:15.207Z,0.00
2023-03-22T04:32:14.534Z,0.00
2023-03-22T04:33:14.703Z,0.00
2023-03-22T04:34:14.944Z,0.00
2023-03-22T04:35:14.442Z,0.00
2023-03-22T04:36:14.372Z,0.00
2023-03-22T04:37:14.582Z,0.00
2023-03-22T04:38:14.378Z,0.00
2023-03-22T04:39:14.492Z,0.00
2023-03-22T04:40:14.440Z,0.00
2023-03-22T04:41:14.574Z,0.00
2023-03-22T04:42:14.578Z,0.00
2023-03-22T04:43:14.659Z,0.00
2023-03-22T04:44:14.601Z,0.00
2023-03-22T04:45:14.721Z,0.00
2023-03-22T04:46:14.685Z,0.00
2023-03-22T04:47:14.820Z,0.00
2023-03-22T04:48:14.374Z,0.00
2023-03-22T04:49:14.413Z,0.00
2023-03-22T04:50:14.414Z,0.00
2023-03-22T04:51:14.627Z,0.00
2023-03-22T04:52:14.357Z,0.00
2023-03-22T04:53:14.288Z,0.00
2023-03-22T04:54:14.278Z,0.00
2023-03-22T04:55:14.238Z,0.00
2023-03-22T04:56:14.246Z,0.00
2023-03-22T04:57:14.251Z,0.00
2023-03-22T04:58:14.248Z,0.00
2023-03-22T04:59:14.206Z,0.00
2023-03-22T05:00:14.194Z,4.00
2023-03-22T05:01:14.240Z,4.00
2023-03-22T05:02:14.285Z,1.00
2023-03-22T05:03:14.323Z,1.00
2023-03-22T05:04:14.165Z,1.00
2023-03-22T05:05:14.305Z,5.00
2023-03-22T05:06:14.304Z,5.00
2023-03-22T05:07:14.284Z,5.00
2023-03-22T05:08:14.143Z,18.00
2023-03-22T05:09:14.332Z,14.00
2023-03-22T05:10:14.332Z,31.00
2023-03-22T05:11:14.342Z,31.00
2023-03-22T05:12:14.295Z,41.00
2023-03-22T05:13:14.106Z,37.00
2023-03-22T05:14:14.163Z,50.00
2023-03-22T05:15:14.423Z,55.00
2023-03-22T05:16:14.494Z,59.00
2023-03-22T05:17:14.127Z,77.00
2023-03-22T05:18:14.070Z,82.00
2023-03-22T05:19:14.464Z,106.00
2023-03-22T05:20:14.075Z,101.00
2023-03-22T05:21:14.063Z,114.00
2023-03-22T05:22:14.059Z,141.00
2023-03-22T05:23:14.049Z,164.00
2023-03-22T05:24:14.030Z,196.00
2023-03-22T05:25:14.034Z,203.00
2023-03-22T05:26:14.016Z,226.00
2023-03-22T05:27:14.080Z,253.00
2023-03-22T05:28:14.029Z,289.00
2023-03-22T05:29:14.042Z,303.00
2023-03-22T05:30:14.079Z,323.00
2023-03-22T05:31:14.294Z,352.00
2023-03-22T05:32:14.129Z,391.00
2023-03-22T05:33:14.285Z,401.00
2023-03-22T05:34:13.982Z,441.00
2023-03-22T05:35:13.959Z,481.00
2023-03-22T05:36:13.957Z,533.00
2023-03-22T05:37:14.000Z,577.00
2023-03-22T05:38:14.122Z,629.00
2023-03-22T05:39:14.130Z,679.00
2023-03-22T05:40:13.930Z,719.00
2023-03-22T05:41:14.203Z,789.00
2023-03-22T05:42:14.360Z,893.00
2023-03-22T05:43:14.368Z,914.00
2023-03-22T05:44:14.154Z,971.00
2023-03-22T05:45:14.382Z,1024.00
2023-03-22T05:46:14.416Z,1087.00
2023-03-22T05:47:14.021Z,1185.00
2023-03-22T05:48:13.940Z,1265.00
2023-03-22T05:49:14.184Z,1374.00
2023-03-22T05:50:13.852Z,1477.00
2023-03-22T05:51:14.208Z,1553.00
2023-03-22T05:52:14.621Z,1621.00
2023-03-22T05:53:13.840Z,1675.00
2023-03-22T05:54:14.486Z,1738.00
2023-03-22T05:55:13.815Z,1732.00
2023-03-22T05:56:14.822Z,1739.00
2023-03-22T05:57:14.023Z,1759.00
2023-03-22T05:58:14.241Z,1793.00
2023-03-22T05:59:14.451Z,1790.00
2023-03-22T06:00:14.677Z,1860.00
2023-03-22T06:01:14.812Z,2089.00
2023-03-22T06:02:14.116Z,2407.00
2023-03-22T06:03:16.379Z,2422.00
2023-03-22T06:04:13.771Z,2624.00
2023-03-22T06:05:13.765Z,2793.00
2023-03-22T06:06:13.793Z,2936.00
2023-03-22T06:07:13.782Z,3158.00
2023-03-22T06:08:13.910Z,3402.00
2023-03-22T06:09:17.432Z,3563.00
2023-03-22T06:10:13.743Z,3756.00
2023-03-22T06:11:13.741Z,3884.00
2023-03-22T06:12:13.719Z,3974.00
2023-03-22T06:13:13.795Z,4143.00
2023-03-22T06:14:13.738Z,4126.00
2023-03-22T06:15:13.748Z,4253.00
2023-03-22T06:16:13.739Z,4304.00
2023-03-22T06:17:13.760Z,4364.00
2023-03-22T06:18:13.771Z,4434.00
2023-03-22T06:19:13.779Z,4383.00
2023-03-22T06:20:13.674Z,4302.00
2023-03-22T06:21:13.868Z,4175.00
2023-03-22T06:22:13.873Z,4122.00
2023-03-22T06:23:13.871Z,4004.00
2023-03-22T06:24:13.882Z,3870.00
2023-03-22T06:25:13.798Z,3730.00
2023-03-22T06:26:13.890Z,3576.00
2023-03-22T06:27:13.898Z,3555.00
2023-03-22T06:28:13.735Z,3489.00
2023-03-22T06:29:13.710Z,3496.00
2023-03-22T06:30:13.952Z,3507.00
2023-03-22T06:31:13.727Z,3741.00
2023-03-22T06:32:13.669Z,3868.00
2023-03-22T06:33:13.662Z,3332.00
2023-03-22T06:34:13.672Z,3304.00
2023-03-22T06:35:13.696Z,3502.00
2023-03-22T06:36:13.682Z,3720.00
2023-03-22T06:37:13.761Z,3792.00
2023-03-22T06:38:13.778Z,3916.00
2023-03-22T06:39:13.517Z,4122.00
2023-03-22T06:40:13.532Z,4483.00
2023-03-22T06:41:13.921Z,4564.00
2023-03-22T06:42:13.546Z,4561.00
2023-03-22T06:43:13.514Z,4431.00
2023-03-22T06:44:13.514Z,4804.00
2023-03-22T06:45:13.525Z,4900.00
2023-03-22T06:46:13.539Z,4910.00
2023-03-22T06:47:13.653Z,4826.00
2023-03-22T06:48:13.794Z,4439.00
2023-03-22T06:49:13.473Z,4032.00
2023-03-22T06:50:13.448Z,4087.00
2023-03-22T06:51:13.463Z,4231.00
2023-03-22T06:52:13.464Z,4972.00
2023-03-22T06:53:13.468Z,5336.00
2023-03-22T06:54:13.399Z,5567.00
2023-03-22T06:55:13.677Z,6050.00
2023-03-22T06:56:13.593Z,6058.00
2023-03-22T06:57:13.482Z,6149.00
2023-03-22T06:58:13.420Z,6229.00
2023-03-22T06:59:14.119Z,6446.00
2023-03-22T07:00:14.245Z,6317.00
2023-03-22T07:01:13.757Z,6670.00
2023-03-22T07:02:13.338Z,6325.00
2023-03-22T07:03:14.357Z,6065.00
2023-03-22T07:04:13.423Z,7188.00
2023-03-22T07:05:13.331Z,7030.00
2023-03-22T07:06:13.673Z,7151.00
2023-03-22T07:07:13.782Z,7616.00
2023-03-22T07:08:14.279Z,7945.00
2023-03-22T07:09:14.094Z,8308.00
2023-03-22T07:10:13.285Z,8662.00
2023-03-22T07:11:13.300Z,8917.00
2023-03-22T07:12:13.617Z,9063.00
2023-03-22T07:13:13.907Z,9164.00
2023-03-22T07:14:13.342Z,9197.00
2023-03-22T07:15:13.511Z,9030.00
2023-03-22T07:16:13.352Z,8827.00
2023-03-22T07:17:13.230Z,8862.00
2023-03-22T07:18:13.254Z,8111.00
2023-03-22T07:19:13.230Z,7199.00
2023-03-22T07:20:13.240Z,7764.00
2023-03-22T07:21:13.243Z,7294.00
2023-03-22T07:22:13.250Z,7655.00
2023-03-22T07:23:13.406Z,8172.00
2023-03-22T07:24:13.190Z,8181.00
2023-03-22T07:25:13.481Z,8538.00
2023-03-22T07:26:13.211Z,8469.00
2023-03-22T07:27:13.186Z,8802.00
2023-03-22T07:28:13.203Z,8564.00
2023-03-22T07:29:13.233Z,8116.00
2023-03-22T07:30:13.211Z,8223.00
2023-03-22T07:31:13.629Z,8448.00
2023-03-22T07:32:13.277Z,8468.00
2023-03-22T07:33:13.197Z,8788.00
2023-03-22T07:34:13.251Z,9183.00
2023-03-22T07:35:13.362Z,9098.00
2023-03-22T07:36:13.134Z,8988.00
2023-03-22T07:37:13.357Z,8524.00
2023-03-22T07:38:13.164Z,8076.00
2023-03-22T07:39:13.085Z,7574.00
2023-03-22T07:40:13.073Z,7285.00
2023-03-22T07:41:13.078Z,7195.00
2023-03-22T07:42:13.087Z,7439.00
2023-03-22T07:43:13.084Z,7584.00
2023-03-22T07:44:17.968Z,8008.00
2023-03-22T07:45:13.053Z,8572.00
2023-03-22T07:46:13.212Z,9158.00
2023-03-22T07:47:13.120Z,9588.00
2023-03-22T07:48:13.313Z,9736.00
2023-03-22T07:49:13.136Z,9376.00
2023-03-22T07:50:13.246Z,8868.00
2023-03-22T07:51:13.042Z,8493.00
2023-03-22T07:52:13.250Z,8468.00
2023-03-22T07:53:13.173Z,8616.00
2023-03-22T07:54:20.194Z,8995.00
2023-03-22T07:55:12.973Z,9449.00
2023-03-22T07:56:12.991Z,9380.00
2023-03-22T07:57:12.987Z,9190.00
2023-03-22T07:58:12.983Z,9175.00
2023-03-22T07:59:13.039Z,10089.00
2023-03-22T08:00:12.995Z,10508.00
2023-03-22T08:01:13.119Z,10841.00
2023-03-22T08:02:13.001Z,10395.00
2023-03-22T08:03:12.980Z,9798.00
2023-03-22T08:04:13.231Z,9166.00
2023-03-22T08:05:13.080Z,8814.00
2023-03-22T08:06:13.362Z,8530.00
2023-03-22T08:07:13.361Z,8268.00
2023-03-22T08:08:12.902Z,8206.00
2023-03-22T08:09:12.968Z,8400.00
2023-03-22T08:10:13.488Z,8591.00
2023-03-22T08:11:13.183Z,8679.00
2023-03-22T08:12:13.491Z,8592.00
2023-03-22T08:13:13.408Z,8910.00
2023-03-22T08:14:12.912Z,8861.00
2023-03-22T08:15:13.099Z,8916.00
2023-03-22T08:16:13.343Z,8590.00
2023-03-22T08:17:13.223Z,8397.00
2023-03-22T08:18:13.286Z,8304.00
2023-03-22T08:19:12.920Z,9107.00
2023-03-22T08:20:13.452Z,9515.00
2023-03-22T08:21:13.650Z,9558.00
2023-03-22T08:22:12.792Z,9331.00
2023-03-22T08:23:12.787Z,8122.00
2023-03-22T08:24:12.775Z,7768.00
2023-03-22T08:25:12.757Z,8333.00
2023-03-22T08:26:12.767Z,8719.00
2023-03-22T08:27:12.756Z,8856.00
2023-03-22T08:28:12.785Z,8942.00
2023-03-22T08:29:12.920Z,8887.00
2023-03-22T08:30:12.949Z,9028.00
2023-03-22T08:31:14.741Z,10313.00
2023-03-22T08:32:13.059Z,10963.00
2023-03-22T08:33:13.018Z,10593.00
2023-03-22T08:34:13.030Z,12016.00
2023-03-22T08:35:12.731Z,11208.00
2023-03-22T08:36:12.795Z,12212.00
2023-03-22T08:37:12.750Z,9972.00
2023-03-22T08:38:12.748Z,11741.00
2023-03-22T08:39:12.647Z,11190.00
2023-03-22T08:40:12.747Z,10806.00
2023-03-22T08:41:12.877Z,11050.00
2023-03-22T08:42:13.007Z,10715.00
2023-03-22T08:43:12.702Z,10275.00
2023-03-22T08:44:12.698Z,9838.00
2023-03-22T08:45:12.674Z,11169.00
2023-03-22T08:46:13.019Z,10792.00
2023-03-22T08:47:13.093Z,9561.00
2023-03-22T08:48:12.844Z,10488.00
2023-03-22T08:49:12.630Z,10362.00
2023-03-22T08:50:12.633Z,9882.00
2023-03-22T08:51:13.326Z,10115.00
2023-03-22T08:52:12.590Z,11833.00
2023-03-22T08:53:13.262Z,13172.00
2023-03-22T08:54:12.677Z,13531.00
2023-03-22T08:55:13.475Z,14134.00
2023-03-22T08:56:12.791Z,13906.00
2023-03-22T08:57:13.093Z,13990.00
2023-03-22T08:58:13.441Z,14168.00
2023-03-22T08:59:12.579Z,14852.00
2023-03-22T09:00:12.502Z,14134.00
2023-03-22T09:01:14.086Z,13084.00
2023-03-22T09:02:12.586Z,12257.00
2023-03-22T09:03:12.510Z,11799.00
2023-03-22T09:04:12.508Z,11264.00
2023-03-22T09:05:12.460Z,10823.00
2023-03-22T09:06:12.463Z,10079.00
2023-03-22T09:07:12.449Z,10109.00
2023-03-22T09:08:18.822Z,8834.00
2023-03-22T09:09:12.432Z,10188.00
2023-03-22T09:10:12.444Z,11456.00
2023-03-22T09:11:12.429Z,10645.00
2023-03-22T09:12:12.454Z,11861.00
2023-03-22T09:13:12.448Z,15886.00
2023-03-22T09:14:12.411Z,15125.00
2023-03-22T09:15:12.385Z,14469.00
2023-03-22T09:16:12.452Z,14616.00
2023-03-22T09:17:12.479Z,14639.00
2023-03-22T09:18:12.638Z,14518.00
2023-03-22T09:19:12.670Z,12966.00
2023-03-22T09:20:13.383Z,11086.00
2023-03-22T09:21:12.374Z,10128.00
2023-03-22T09:22:12.650Z,12440.00
2023-03-22T09:23:12.355Z,13352.00
2023-03-22T09:24:12.327Z,16630.00
2023-03-22T09:25:13.222Z,12175.00
2023-03-22T09:26:12.544Z,10418.00
2023-03-22T09:27:12.314Z,13380.00
2023-03-22T09:28:12.368Z,9285.00
2023-03-22T09:29:12.693Z,14758.00
2023-03-22T09:30:12.313Z,13927.00
2023-03-22T09:31:12.334Z,18226.00
2023-03-22T09:32:12.410Z,14620.00
2023-03-22T09:33:12.274Z,16857.00
2023-03-22T09:34:12.253Z,12939.00
2023-03-22T09:35:12.811Z,14974.00
2023-03-22T09:36:12.252Z,21505.00
2023-03-22T09:37:12.225Z,19405.00
2023-03-22T09:38:12.260Z,14396.00
2023-03-22T09:39:12.214Z,11723.00
2023-03-22T09:40:12.214Z,18398.00
2023-03-22T09:41:12.326Z,14282.00
2023-03-22T09:42:12.198Z,19299.00
2023-03-22T09:43:12.252Z,16476.00
2023-03-22T09:44:12.186Z,12968.00
2023-03-22T09:45:12.172Z,9071.00
2023-03-22T09:46:12.191Z,11065.00
2023-03-22T09:47:12.151Z,15255.00
2023-03-22T09:48:12.273Z,18161.00
2023-03-22T09:49:12.132Z,13215.00
2023-03-22T09:50:13.025Z,12650.00
2023-03-22T09:51:12.205Z,12522.00
2023-03-22T09:52:12.281Z,13302.00
2023-03-22T09:53:12.132Z,16065.00
2023-03-22T09:54:12.163Z,9277.00
2023-03-22T09:55:12.170Z,14884.00
2023-03-22T09:56:12.271Z,17312.00
2023-03-22T09:57:12.132Z,15979.00
2023-03-22T09:58:12.145Z,15863.00
2023-03-22T09:59:12.069Z,15351.00
2023-03-22T10:00:12.152Z,9881.00
2023-03-22T10:01:12.361Z,17835.00
2023-03-22T10:02:12.144Z,20166.00
2023-03-22T10:03:12.058Z,15747.00
2023-03-22T10:04:12.063Z,10440.00
2023-03-22T10:05:12.045Z,15329.00
2023-03-22T10:06:12.029Z,11692.00
2023-03-22T10:07:11.999Z,15684.00
2023-03-22T10:08:12.100Z,18417.00
2023-03-22T10:09:11.999Z,18392.00
2023-03-22T10:10:11.986Z,19542.00
2023-03-22T10:11:12.206Z,15715.00
2023-03-22T10:12:12.009Z,15250.00
2023-03-22T10:13:12.022Z,23398.00
2023-03-22T10:14:11.958Z,14409.00
2023-03-22T10:15:11.958Z,16557.00
2023-03-22T10:16:12.024Z,19039.00
2023-03-22T10:17:12.006Z,19194.00
2023-03-22T10:18:11.948Z,14054.00
2023-03-22T10:19:11.963Z,15401.00
2023-03-22T10:20:11.917Z,12848.00
2023-03-22T10:21:11.924Z,14932.00
2023-03-22T10:22:11.916Z,21620.00
2023-03-22T10:23:11.916Z,20875.00
2023-03-22T10:24:11.890Z,15133.00
2023-03-22T10:25:11.888Z,14541.00
2023-03-22T10:26:12.066Z,17383.00
2023-03-22T10:27:12.925Z,13272.00
2023-03-22T10:28:11.882Z,23148.00
2023-03-22T10:29:11.868Z,20356.00
2023-03-22T10:30:11.856Z,18641.00
2023-03-22T10:31:11.965Z,19599.00
2023-03-22T10:32:11.936Z,18252.00
2023-03-22T10:33:11.855Z,21382.00
2023-03-22T10:34:11.816Z,21108.00
2023-03-22T10:35:11.866Z,22113.00
2023-03-22T10:36:11.901Z,20751.00
2023-03-22T10:37:11.806Z,20198.00
2023-03-22T10:38:11.819Z,18930.00
2023-03-22T10:39:11.786Z,18555.00
2023-03-22T10:40:11.788Z,22881.00
2023-03-22T10:41:11.797Z,20785.00
2023-03-22T10:42:11.779Z,18330.00
2023-03-22T10:43:11.756Z,20401.00
2023-03-22T10:44:11.748Z,18971.00
2023-03-22T10:45:11.761Z,25913.00
2023-03-22T10:46:11.737Z,25680.00
2023-03-22T10:47:11.765Z,20614.00
2023-03-22T10:48:11.758Z,17889.00
2023-03-22T10:49:11.888Z,24490.00
2023-03-22T10:50:11.706Z,20312.00
2023-03-22T10:51:12.093Z,25574.00
2023-03-22T10:52:11.700Z,24971.00
2023-03-22T10:53:12.066Z,23560.00
2023-03-22T10:54:12.467Z,24514.00
2023-03-22T10:55:12.470Z,20893.00
2023-03-22T10:56:11.677Z,20308.00
2023-03-22T10:57:11.679Z,20324.00
2023-03-22T10:58:11.669Z,24817.00
2023-03-22T10:59:12.498Z,25382.00
2023-03-22T11:00:11.668Z,24723.00
2023-03-22T11:01:11.877Z,21771.00
2023-03-22T11:02:11.769Z,21448.00
2023-03-22T11:03:12.590Z,14339.00
2023-03-22T11:04:12.501Z,16249.00
2023-03-22T11:05:12.583Z,23951.00
2023-03-22T11:06:12.430Z,23227.00
2023-03-22T11:07:11.599Z,16106.00
2023-03-22T11:08:11.739Z,27145.00
2023-03-22T11:09:11.589Z,18599.00
2023-03-22T11:10:11.739Z,17565.00
2023-03-22T11:11:11.789Z,23168.00
2023-03-22T11:12:11.750Z,19099.00
2023-03-22T11:13:11.979Z,28983.00
2023-03-22T11:14:12.003Z,25284.00
2023-03-22T11:15:11.988Z,23547.00
2023-03-22T11:16:12.011Z,23874.00
2023-03-22T11:17:11.799Z,28811.00
2023-03-22T11:18:11.616Z,25609.00
2023-03-22T11:19:11.875Z,23966.00
2023-03-22T11:20:11.751Z,24026.00
2023-03-22T11:21:11.552Z,23748.00
2023-03-22T11:22:11.487Z,24224.00
2023-03-22T11:23:11.475Z,23056.00
2023-03-22T11:24:11.652Z,24767.00
2023-03-22T11:25:11.654Z,25309.00
2023-03-22T11:26:11.708Z,26670.00
2023-03-22T11:27:11.676Z,26808.00
2023-03-22T11:28:11.482Z,26094.00
2023-03-22T11:29:11.745Z,26935.00
2023-03-22T11:30:11.894Z,25554.00
2023-03-22T11:31:11.493Z,25527.00
2023-03-22T11:32:11.948Z,26665.00
2023-03-22T11:33:12.143Z,23713.00
2023-03-22T11:34:12.165Z,26110.00
2023-03-22T11:35:12.128Z,29633.00
2023-03-22T11:36:12.145Z,18938.00
2023-03-22T11:37:12.406Z,40568.00
2023-03-22T11:38:11.499Z,13983.00
2023-03-22T11:39:11.470Z,61017.00
2023-03-22T11:40:11.374Z,25015.00
2023-03-22T11:41:11.434Z,11028.00
2023-03-22T11:42:11.784Z,66425.00
2023-03-22T11:43:11.395Z,13594.00
2023-03-22T11:44:11.376Z,75399.00
2023-03-22T11:45:11.377Z,29263.00
2023-03-22T11:46:11.423Z,55975.00
2023-03-22T11:47:11.292Z,64543.00
2023-03-22T11:48:11.453Z,44379.00
2023-03-22T11:49:11.655Z,48976.00
2023-03-22T11:50:11.290Z,41036.00
2023-03-22T11:51:11.404Z,62564.00
2023-03-22T11:52:11.427Z,38509.00
2023-03-22T11:53:11.439Z,41678.00
2023-03-22T11:54:11.464Z,35009.00
2023-03-22T11:55:11.454Z,41495.00
2023-03-22T11:56:11.448Z,39827.00
2023-03-22T11:57:11.226Z,40598.00
2023-03-22T11:58:11.462Z,33932.00
2023-03-22T11:59:11.228Z,28940.00
2023-03-22T12:00:11.198Z,61153.00
2023-03-22T12:01:11.329Z,59151.00
2023-03-22T12:02:11.212Z,42028.00
2023-03-22T12:03:11.316Z,31799.00
2023-03-22T12:04:11.288Z,39162.00
2023-03-22T12:05:11.557Z,35828.00
2023-03-22T12:06:11.549Z,49358.00
2023-03-22T12:07:11.152Z,10612.00
2023-03-22T12:08:11.161Z,44755.00
2023-03-22T12:09:11.536Z,68755.00
2023-03-22T12:10:11.225Z,54695.00
2023-03-22T12:11:11.171Z,48236.00
2023-03-22T12:12:11.112Z,46842.00
2023-03-22T12:13:11.563Z,56356.00
2023-03-22T12:14:11.113Z,42191.00
2023-03-22T12:15:11.581Z,52450.00
2023-03-22T12:16:11.113Z,49755.00
2023-03-22T12:17:11.803Z,41192.00
2023-03-22T12:18:11.121Z,44194.00
2023-03-22T12:19:11.091Z,39322.00
2023-03-22T12:20:11.062Z,28598.00
2023-03-22T12:21:11.212Z,26544.00
2023-03-22T12:22:11.254Z,44102.00
2023-03-22T12:23:11.036Z,40497.00
2023-03-22T12:24:11.033Z,23796.00
2023-03-22T12:25:11.070Z,28370.00
2023-03-22T12:26:11.481Z,26171.00
2023-03-22T12:27:11.001Z,27072.00
2023-03-22T12:28:10.994Z,26680.00